sensor_id;sensor_type;location;lat;lon;timestamp;pressure;altitude;pressure_sealevel;temperature;humidity
64362;BME280;50685;53.346;-6.296;2023-04-30T00:02:44;101654.41;;;13.47;93.82
64362;BME280;50685;53.346;-6.296;2023-04-30T00:05:29;101634.09;;;13.35;93.90
64362;BME280;50685;53.346;-6.296;2023-04-30T00:07:54;101642.06;;;13.37;93.32
64362;BME280;50685;53.346;-6.296;2023-04-30T00:10:29;101691.63;;;13.59;93.25
64362;BME280;50685;53.346;-6.296;2023-04-30T00:21:08;101642.25;;;13.20;93.10
64362;BME280;50685;53.346;-6.296;2023-04-30T00:24:06;101636.06;;;13.17;93.43
64362;BME280;50685;53.346;-6.296;2023-04-30T00:26:48;101689.06;;;13.47;93.22
64362;BME280;50685;53.346;-6.296;2023-04-30T00:29:14;101675.84;;;13.34;92.86
64362;BME280;50685;53.346;-6.296;2023-04-30T00:31:40;101655.56;;;13.21;92.92
64362;BME280;50685;53.346;-6.296;2023-04-30T00:34:06;101629.09;;;13.02;92.33
64362;BME280;50685;53.346;-6.296;2023-04-30T00:36:37;101671.56;;;13.18;92.67
64362;BME280;50685;53.346;-6.296;2023-04-30T00:39:04;101644.25;;;12.96;92.96
64362;BME280;50685;53.346;-6.296;2023-04-30T00:41:31;101663.72;;;13.04;93.24
64362;BME280;50685;53.346;-6.296;2023-04-30T00:44:02;101652.41;;;12.74;93.04
64362;BME280;50685;53.346;-6.296;2023-04-30T00:46:28;101687.81;;;12.89;93.57
64362;BME280;50685;53.346;-6.296;2023-04-30T00:48:58;101641.91;;;12.56;94.01
64362;BME280;50685;53.346;-6.296;2023-04-30T00:51:31;101686.16;;;12.72;94.58
64362;BME280;50685;53.346;-6.296;2023-04-30T00:54:00;101651.72;;;12.49;94.98
64362;BME280;50685;53.346;-6.296;2023-04-30T00:56:31;101645.63;;;12.34;95.83
64362;BME280;50685;53.346;-6.296;2023-04-30T00:59:00;101667.75;;;12.38;96.35
64362;BME280;50685;53.346;-6.296;2023-04-30T01:01:27;101658.09;;;12.21;96.93
64362;BME280;50685;53.346;-6.296;2023-04-30T01:03:58;101659.91;;;12.18;96.99
64362;BME280;50685;53.346;-6.296;2023-04-30T01:06:26;101659.00;;;12.22;97.78
64362;BME280;50685;53.346;-6.296;2023-04-30T01:08:58;101679.34;;;12.29;98.04
64362;BME280;50685;53.346;-6.296;2023-04-30T01:11:59;101644.00;;;12.04;98.12
64362;BME280;50685;53.346;-6.296;2023-04-30T01:20:48;101644.94;;;11.98;99.55
64362;BME280;50685;53.346;-6.296;2023-04-30T01:26:42;101645.81;;;11.99;100.00
64362;BME280;50685;53.346;-6.296;2023-04-30T01:29:20;101652.00;;;12.02;100.00
64362;BME280;50685;53.346;-6.296;2023-04-30T01:31:56;101651.94;;;12.10;100.00
64362;BME280;50685;53.346;-6.296;2023-04-30T01:34:46;101648.41;;;12.07;100.00
64362;BME280;50685;53.346;-6.296;2023-04-30T01:37:50;101659.94;;;12.13;100.00
64362;BME280;50685;53.346;-6.296;2023-04-30T01:41:17;101625.41;;;11.93;100.00
64362;BME280;50685;53.346;-6.296;2023-04-30T01:47:31;101653.75;;;12.05;100.00
64362;BME280;50685;53.346;-6.296;2023-04-30T01:52:38;101601.59;;;11.73;100.00
64362;BME280;50685;53.346;-6.296;2023-04-30T01:55:11;101624.56;;;11.86;100.00
64362;BME280;50685;53.346;-6.296;2023-04-30T01:57:53;101613.06;;;11.80;100.00
64362;BME280;50685;53.346;-6.296;2023-04-30T02:00:27;101593.63;;;11.70;100.00
64362;BME280;50685;53.346;-6.296;2023-04-30T02:02:59;101600.72;;;11.71;100.00
64362;BME280;50685;53.346;-6.296;2023-04-30T02:05:25;101596.28;;;11.70;100.00
64362;BME280;50685;53.346;-6.296;2023-04-30T02:07:51;101596.31;;;11.67;100.00
64362;BME280;50685;53.346;-6.296;2023-04-30T02:10:22;101606.88;;;11.81;100.00
64362;BME280;50685;53.346;-6.296;2023-04-30T02:13:04;101589.25;;;11.60;100.00
64362;BME280;50685;53.346;-6.296;2023-04-30T02:15:29;101593.72;;;11.51;100.00
64362;BME280;50685;53.346;-6.296;2023-04-30T02:17:55;101628.19;;;11.73;100.00
64362;BME280;50685;53.346;-6.296;2023-04-30T02:20:27;101591.94;;;11.49;100.00
64362;BME280;50685;53.346;-6.296;2023-04-30T02:22:52;101583.13;;;11.47;100.00
64362;BME280;50685;53.346;-6.296;2023-04-30T02:25:18;101621.13;;;11.66;100.00
64362;BME280;50685;53.346;-6.296;2023-04-30T02:27:47;101619.34;;;11.63;100.00
64362;BME280;50685;53.346;-6.296;2023-04-30T02:30:14;101587.59;;;11.37;100.00
64362;BME280;50685;53.346;-6.296;2023-04-30T02:32:48;101618.50;;;11.58;100.00
64362;BME280;50685;53.346;-6.296;2023-04-30T02:35:24;101598.19;;;11.45;100.00
64362;BME280;50685;53.346;-6.296;2023-04-30T02:38:01;101607.00;;;11.54;100.00
64362;BME280;50685;53.346;-6.296;2023-04-30T03:22:51;101567.25;;;11.30;100.00
64362;BME280;50685;53.346;-6.296;2023-04-30T03:25:34;101558.41;;;11.26;100.00
64362;BME280;50685;53.346;-6.296;2023-04-30T03:28:12;101563.72;;;11.26;100.00
64362;BME280;50685;53.346;-6.296;2023-04-30T03:33:32;101591.94;;;11.49;100.00
64362;BME280;50685;53.346;-6.296;2023-04-30T03:36:14;101559.28;;;11.27;100.00
64362;BME280;50685;53.346;-6.296;2023-04-30T03:38:48;101546.03;;;11.23;100.00
64362;BME280;50685;53.346;-6.296;2023-04-30T03:41:14;101558.38;;;11.29;100.00
64362;BME280;50685;53.346;-6.296;2023-04-30T03:43:40;101546.84;;;11.32;100.00
64362;BME280;50685;53.346;-6.296;2023-04-30T03:46:08;101580.41;;;11.57;100.00
64362;BME280;50685;53.346;-6.296;2023-04-30T03:48:34;101558.34;;;11.45;100.00
64362;BME280;50685;53.346;-6.296;2023-04-30T03:50:59;101532.69;;;11.37;100.00
64362;BME280;50685;53.346;-6.296;2023-04-30T03:53:26;101533.59;;;11.32;100.00
64362;BME280;50685;53.346;-6.296;2023-04-30T03:55:52;101526.50;;;11.34;100.00
64362;BME280;50685;53.346;-6.296;2023-04-30T03:58:19;101526.50;;;11.37;100.00
64362;BME280;50685;53.346;-6.296;2023-04-30T04:00:46;101533.56;;;11.41;100.00
64362;BME280;50685;53.346;-6.296;2023-04-30T04:03:13;101531.78;;;11.43;100.00
64362;BME280;50685;53.346;-6.296;2023-04-30T04:05:39;101543.25;;;11.54;100.00
64362;BME280;50685;53.346;-6.296;2023-04-30T04:08:05;101535.31;;;11.47;100.00
64362;BME280;50685;53.346;-6.296;2023-04-30T04:10:34;101532.59;;;11.51;100.00
64362;BME280;50685;53.346;-6.296;2023-04-30T04:13:02;101533.50;;;11.52;100.00
64362;BME280;50685;53.346;-6.296;2023-04-30T04:15:28;101537.06;;;11.51;100.00
64362;BME280;50685;53.346;-6.296;2023-04-30T04:17:56;101530.84;;;11.53;100.00
64362;BME280;50685;53.346;-6.296;2023-04-30T04:20:22;101537.94;;;11.54;100.00
64362;BME280;50685;53.346;-6.296;2023-04-30T04:22:47;101538.78;;;11.55;100.00
64362;BME280;50685;53.346;-6.296;2023-04-30T04:25:19;101534.38;;;11.54;100.00
64362;BME280;50685;53.346;-6.296;2023-04-30T04:27:51;101527.28;;;11.56;100.00
64362;BME280;50685;53.346;-6.296;2023-04-30T04:30:19;101560.81;;;11.80;100.00
64362;BME280;50685;53.346;-6.296;2023-04-30T04:32:48;101529.91;;;11.57;100.00
64362;BME280;50685;53.346;-6.296;2023-04-30T04:35:20;101547.59;;;11.72;100.00
64362;BME280;50685;53.346;-6.296;2023-04-30T04:37:51;101537.84;;;11.67;100.00
64362;BME280;50685;53.346;-6.296;2023-04-30T04:40:20;101566.09;;;11.86;100.00
64362;BME280;50685;53.346;-6.296;2023-04-30T04:42:49;101526.38;;;11.58;100.00
64362;BME280;50685;53.346;-6.296;2023-04-30T04:45:16;101552.88;;;11.79;100.00
64362;BME280;50685;53.346;-6.296;2023-04-30T04:47:48;101563.47;;;11.82;100.00
64362;BME280;50685;53.346;-6.296;2023-04-30T04:50:13;101511.34;;;11.56;100.00
64362;BME280;50685;53.346;-6.296;2023-04-30T04:52:45;101518.41;;;11.62;100.00
64362;BME280;50685;53.346;-6.296;2023-04-30T04:55:21;101513.97;;;11.61;100.00
64362;BME280;50685;53.346;-6.296;2023-04-30T04:57:48;101507.75;;;11.60;100.00
64362;BME280;50685;53.346;-6.296;2023-04-30T05:00:19;101519.25;;;11.67;100.00
64362;BME280;50685;53.346;-6.296;2023-04-30T05:02:53;101512.16;;;11.70;100.00
64362;BME280;50685;53.346;-6.296;2023-04-30T05:05:23;101510.38;;;11.69;100.00
64362;BME280;50685;53.346;-6.296;2023-04-30T05:07:49;101548.31;;;11.93;100.00
64362;BME280;50685;53.346;-6.296;2023-04-30T05:10:19;101543.94;;;11.87;100.00
64362;BME280;50685;53.346;-6.296;2023-04-30T05:12:48;101500.69;;;11.65;100.00
64362;BME280;50685;53.346;-6.296;2023-04-30T05:15:13;101530.66;;;11.84;100.00
64362;BME280;50685;53.346;-6.296;2023-04-30T05:17:40;101490.03;;;11.64;100.00
64362;BME280;50685;53.346;-6.296;2023-04-30T05:20:20;101506.84;;;11.66;100.00
64362;BME280;50685;53.346;-6.296;2023-04-30T05:22:52;101507.78;;;11.62;100.00
64362;BME280;50685;53.346;-6.296;2023-04-30T05:25:28;101530.75;;;11.70;100.00
64362;BME280;50685;53.346;-6.296;2023-04-30T05:28:00;101500.69;;;11.61;100.00
64362;BME280;50685;53.346;-6.296;2023-04-30T05:30:26;101508.66;;;11.65;100.00
64362;BME280;50685;53.346;-6.296;2023-04-30T05:32:53;101526.31;;;11.74;100.00
64362;BME280;50685;53.346;-6.296;2023-04-30T05:35:26;101550.13;;;11.88;100.00
64362;BME280;50685;53.346;-6.296;2023-04-30T05:37:52;101546.59;;;11.87;100.00
64362;BME280;50685;53.346;-6.296;2023-04-30T05:40:21;101502.44;;;11.60;100.00
64362;BME280;50685;53.346;-6.296;2023-04-30T05:42:47;101503.31;;;11.64;100.00
64362;BME280;50685;53.346;-6.296;2023-04-30T05:45:12;101494.47;;;11.63;100.00
64362;BME280;50685;53.346;-6.296;2023-04-30T05:47:41;101501.56;;;11.64;100.00
64362;BME280;50685;53.346;-6.296;2023-04-30T05:50:10;101541.31;;;11.81;100.00
64362;BME280;50685;53.346;-6.296;2023-04-30T05:52:36;101509.50;;;11.67;100.00
64362;BME280;50685;53.346;-6.296;2023-04-30T05:55:09;101509.50;;;11.67;100.00
64362;BME280;50685;53.346;-6.296;2023-04-30T05:57:38;101506.84;;;11.69;100.00
64362;BME280;50685;53.346;-6.296;2023-04-30T06:00:15;101510.41;;;11.65;100.00
64362;BME280;50685;53.346;-6.296;2023-04-30T06:02:44;101550.13;;;11.91;100.00
64362;BME280;50685;53.346;-6.296;2023-04-30T06:05:13;101508.66;;;11.61;100.00
64362;BME280;50685;53.346;-6.296;2023-04-30T06:07:47;101506.91;;;11.63;100.00
64362;BME280;50685;53.346;-6.296;2023-04-30T06:10:13;101506.84;;;11.66;100.00
64362;BME280;50685;53.346;-6.296;2023-04-30T06:12:41;101554.59;;;11.87;100.00
64362;BME280;50685;53.346;-6.296;2023-04-30T06:15:07;101537.78;;;11.82;100.00
64362;BME280;50685;53.346;-6.296;2023-04-30T06:17:36;101558.97;;;11.93;100.00
64362;BME280;50685;53.346;-6.296;2023-04-30T06:20:10;101507.75;;;11.68;100.00
64362;BME280;50685;53.346;-6.296;2023-04-30T06:22:39;101512.16;;;11.69;100.00
64362;BME280;50685;53.346;-6.296;2023-04-30T06:25:08;101565.16;;;12.00;100.00
64362;BME280;50685;53.346;-6.296;2023-04-30T06:27:34;101529.78;;;11.85;100.00
64362;BME280;50685;53.346;-6.296;2023-04-30T06:30:03;101530.69;;;11.83;100.00
64362;BME280;50685;53.346;-6.296;2023-04-30T06:32:31;101566.00;;;12.08;100.00
64362;BME280;50685;53.346;-6.296;2023-04-30T06:34:59;101526.22;;;11.86;100.00
64362;BME280;50685;53.346;-6.296;2023-04-30T06:37:43;101542.16;;;11.91;100.00
64362;BME280;50685;53.346;-6.296;2023-04-30T06:40:09;101520.94;;;11.82;100.00
64362;BME280;50685;53.346;-6.296;2023-04-30T06:42:35;101527.13;;;11.88;100.00
64362;BME280;50685;53.346;-6.296;2023-04-30T06:45:06;101523.59;;;11.82;100.00
64362;BME280;50685;53.346;-6.296;2023-04-30T06:47:32;101563.31;;;12.14;100.00
64362;BME280;50685;53.346;-6.296;2023-04-30T06:50:07;101558.94;;;12.04;100.00
64362;BME280;50685;53.346;-6.296;2023-04-30T06:52:33;101545.63;;;12.04;100.00
64362;BME280;50685;53.346;-6.296;2023-04-30T06:54:59;101567.69;;;12.23;100.00
64362;BME280;50685;53.346;-6.296;2023-04-30T06:57:26;101544.69;;;12.14;100.00
64362;BME280;50685;53.346;-6.296;2023-04-30T06:59:52;101521.69;;;12.09;100.00
64362;BME280;50685;53.346;-6.296;2023-04-30T07:02:17;101522.50;;;12.15;100.00
64362;BME280;50685;53.346;-6.296;2023-04-30T07:04:43;101520.75;;;12.14;100.00
64362;BME280;50685;53.346;-6.296;2023-04-30T07:07:12;101542.75;;;12.35;100.00
64362;BME280;50685;53.346;-6.296;2023-04-30T07:09:40;101525.00;;;12.37;100.00
64362;BME280;50685;53.346;-6.296;2023-04-30T07:12:06;101522.22;;;12.51;100.00
64362;BME280;50685;53.346;-6.296;2023-04-30T07:14:34;101534.44;;;12.72;100.00
64362;BME280;50685;53.346;-6.296;2023-04-30T07:17:13;101542.19;;;12.94;100.00
64362;BME280;50685;53.346;-6.296;2023-04-30T07:19:41;101536.75;;;13.05;100.00
64362;BME280;50685;53.346;-6.296;2023-04-30T07:22:10;101566.69;;;13.30;100.00
64362;BME280;50685;53.346;-6.296;2023-04-30T07:24:46;101566.69;;;13.30;99.98
64362;BME280;50685;53.346;-6.296;2023-04-30T07:27:12;101521.69;;;13.02;98.30
64362;BME280;50685;53.346;-6.296;2023-04-30T07:29:38;101543.75;;;13.13;99.02
64362;BME280;50685;53.346;-6.296;2023-04-30T07:32:03;101526.16;;;13.00;98.01
64362;BME280;50685;53.346;-6.296;2023-04-30T07:34:29;101532.34;;;13.04;96.83
64362;BME280;50685;53.346;-6.296;2023-04-30T07:36:58;101562.16;;;13.35;97.45
64362;BME280;50685;53.346;-6.296;2023-04-30T07:39:27;101531.25;;;13.18;95.33
64362;BME280;50685;53.346;-6.296;2023-04-30T07:41:59;101553.28;;;13.38;95.19
64362;BME280;50685;53.346;-6.296;2023-04-30T07:44:30;101536.25;;;13.51;96.26
64362;BME280;50685;53.346;-6.296;2023-04-30T07:47:02;101553.53;;;13.88;95.54
64362;BME280;50685;53.346;-6.296;2023-04-30T07:49:29;101578.41;;;14.46;94.16
64362;BME280;50685;53.346;-6.296;2023-04-30T07:52:01;101530.44;;;14.43;90.19
64362;BME280;50685;53.346;-6.296;2023-04-30T07:54:30;101546.25;;;14.55;90.10
64362;BME280;50685;53.346;-6.296;2023-04-30T07:57:08;101531.19;;;14.50;88.98
64362;BME280;50685;53.346;-6.296;2023-04-30T07:59:36;101532.09;;;14.49;87.67
64362;BME280;50685;53.346;-6.296;2023-04-30T08:02:02;101542.09;;;14.37;86.12
64362;BME280;50685;53.346;-6.296;2023-04-30T08:04:32;101580.09;;;14.50;87.35
64362;BME280;50685;53.346;-6.296;2023-04-30T08:07:10;101556.69;;;14.14;86.45
64362;BME280;50685;53.346;-6.296;2023-04-30T08:16:29;101578.16;;;14.05;87.63
64362;BME280;50685;53.346;-6.296;2023-04-30T08:19:40;101592.22;;;14.17;88.85
64362;BME280;50685;53.346;-6.296;2023-04-30T08:22:22;101540.97;;;13.94;87.90
64362;BME280;50685;53.346;-6.296;2023-04-30T08:28:52;101542.00;;;13.86;87.45
64362;BME280;50685;53.346;-6.296;2023-04-30T08:41:35;101530.03;;;14.11;86.26
64362;BME280;50685;53.346;-6.296;2023-04-30T08:50:54;101537.81;;;14.27;85.12
64362;BME280;50685;53.346;-6.296;2023-04-30T08:53:22;101535.88;;;14.37;84.18
64362;BME280;50685;53.346;-6.296;2023-04-30T08:56:03;101558.75;;;14.50;83.15
64362;BME280;50685;53.346;-6.296;2023-04-30T08:58:54;101553.34;;;14.55;83.25
64362;BME280;50685;53.346;-6.296;2023-04-30T09:04:59;101578.50;;;14.93;81.06
64362;BME280;50685;53.346;-6.296;2023-04-30T09:10:23;101583.75;;;14.99;82.01
64362;BME280;50685;53.346;-6.296;2023-04-30T09:18:44;101575.41;;;15.16;80.75
64362;BME280;50685;53.346;-6.296;2023-04-30T09:21:40;101516.25;;;15.36;81.02
64362;BME280;50685;53.346;-6.296;2023-04-30T09:35:45;101516.22;;;18.35;67.91
64362;BME280;50685;53.346;-6.296;2023-04-30T09:38:26;101568.16;;;18.88;67.91
64362;BME280;50685;53.346;-6.296;2023-04-30T09:44:47;101548.69;;;18.27;65.10
64362;BME280;50685;53.346;-6.296;2023-04-30T09:55:54;101530.97;;;17.93;63.26
64362;BME280;50685;53.346;-6.296;2023-04-30T10:02:57;101578.22;;;17.38;66.11
64362;BME280;50685;53.346;-6.296;2023-04-30T10:20:06;101525.09;;;19.62;57.55
64362;BME280;50685;53.346;-6.296;2023-04-30T10:22:38;101523.91;;;18.98;59.25
64362;BME280;50685;53.346;-6.296;2023-04-30T10:25:15;101533.41;;;18.29;61.41
64362;BME280;50685;53.346;-6.296;2023-04-30T10:27:58;101554.91;;;18.56;61.74
64362;BME280;50685;53.346;-6.296;2023-04-30T10:30:27;101583.97;;;18.70;61.29
64362;BME280;50685;53.346;-6.296;2023-04-30T10:46:33;101576.88;;;18.41;60.17
64362;BME280;50685;53.346;-6.296;2023-04-30T10:56:52;101526.91;;;18.37;59.38
64362;BME280;50685;53.346;-6.296;2023-04-30T10:59:22;101522.56;;;18.33;59.60
64362;BME280;50685;53.346;-6.296;2023-04-30T11:02:27;101551.69;;;18.18;58.90
64362;BME280;50685;53.346;-6.296;2023-04-30T11:51:02;101509.78;;;21.34;51.96
64362;BME280;50685;53.346;-6.296;2023-04-30T11:53:55;101525.09;;;20.73;51.97
64362;BME280;50685;53.346;-6.296;2023-04-30T11:56:30;101516.34;;;19.33;61.24
64362;BME280;50685;53.346;-6.296;2023-04-30T11:59:10;101502.78;;;18.08;65.93
64362;BME280;50685;53.346;-6.296;2023-04-30T12:01:36;101495.56;;;17.52;68.94
64362;BME280;50685;53.346;-6.296;2023-04-30T12:04:05;101520.94;;;17.10;69.53
64362;BME280;50685;53.346;-6.296;2023-04-30T12:06:31;101505.13;;;16.66;69.50
64362;BME280;50685;53.346;-6.296;2023-04-30T12:08:59;101513.56;;;16.51;70.75
64362;BME280;50685;53.346;-6.296;2023-04-30T12:11:28;101557.22;;;16.54;77.76
64362;BME280;50685;53.346;-6.296;2023-04-30T12:13:56;101528.03;;;16.08;79.36
64362;BME280;50685;53.346;-6.296;2023-04-30T12:16:23;101524.16;;;15.82;78.53
64362;BME280;50685;53.346;-6.296;2023-04-30T12:18:49;101504.31;;;15.51;78.75
64362;BME280;50685;53.346;-6.296;2023-04-30T12:21:16;101514.88;;;15.57;78.36
64362;BME280;50685;53.346;-6.296;2023-04-30T12:23:42;101541.34;;;15.70;76.43
64362;BME280;50685;53.346;-6.296;2023-04-30T12:26:09;101542.06;;;15.78;77.27
64362;BME280;50685;53.346;-6.296;2023-04-30T12:28:48;101507.72;;;15.60;75.83
64362;BME280;50685;53.346;-6.296;2023-04-30T12:31:17;101500.59;;;15.58;75.45
64362;BME280;50685;53.346;-6.296;2023-04-30T12:33:52;101515.50;;;15.69;74.34
64362;BME280;50685;53.346;-6.296;2023-04-30T12:36:21;101512.66;;;15.78;73.81
64362;BME280;50685;53.346;-6.296;2023-04-30T12:38:46;101524.72;;;15.96;72.23
64362;BME280;50685;53.346;-6.296;2023-04-30T12:41:12;101499.28;;;16.16;73.50
64362;BME280;50685;53.346;-6.296;2023-04-30T12:44:11;101481.78;;;16.72;69.69
64362;BME280;50685;53.346;-6.296;2023-04-30T12:46:55;101468.41;;;17.63;67.38
64362;BME280;50685;53.346;-6.296;2023-04-30T12:49:43;101494.38;;;18.71;67.93
64362;BME280;50685;53.346;-6.296;2023-04-30T13:03:56;101454.06;;;18.97;60.99
64362;BME280;50685;53.346;-6.296;2023-04-30T13:06:31;101472.13;;;18.93;59.85
64362;BME280;50685;53.346;-6.296;2023-04-30T13:15:53;101487.13;;;20.14;54.70
64362;BME280;50685;53.346;-6.296;2023-04-30T13:19:18;101442.09;;;19.97;52.71
64362;BME280;50685;53.346;-6.296;2023-04-30T13:21:39;101492.22;;;20.63;51.98
64362;BME280;50685;53.346;-6.296;2023-04-30T13:24:42;101478.97;;;20.79;50.93
64362;BME280;50685;53.346;-6.296;2023-04-30T13:27:21;101506.47;;;20.88;51.67
64362;BME280;50685;53.346;-6.296;2023-04-30T13:29:52;101447.47;;;19.97;52.73
64362;BME280;50685;53.346;-6.296;2023-04-30T13:35:01;101471.22;;;18.92;55.17
64362;BME280;50685;53.346;-6.296;2023-04-30T13:37:33;101462.34;;;18.65;55.00
64362;BME280;50685;53.346;-6.296;2023-04-30T13:46:11;101432.78;;;19.82;52.47
64362;BME280;50685;53.346;-6.296;2023-04-30T13:48:52;101433.00;;;20.41;50.53
64362;BME280;50685;53.346;-6.296;2023-04-30T13:54:28;101469.13;;;20.37;50.88
64362;BME280;50685;53.346;-6.296;2023-04-30T14:00:36;101498.63;;;19.97;56.37
64362;BME280;50685;53.346;-6.296;2023-04-30T14:03:09;101445.97;;;19.44;56.05
64362;BME280;50685;53.346;-6.296;2023-04-30T14:06:03;101502.47;;;19.44;56.31
64362;BME280;50685;53.346;-6.296;2023-04-30T14:08:45;101459.91;;;18.83;57.41
64362;BME280;50685;53.346;-6.296;2023-04-30T14:11:18;101505.81;;;18.76;58.82
64362;BME280;50685;53.346;-6.296;2023-04-30T14:13:52;101451.28;;;18.24;59.93
64362;BME280;50685;53.346;-6.296;2023-04-30T14:19:19;101503.28;;;18.46;62.23
64362;BME280;50685;53.346;-6.296;2023-04-30T14:21:51;101506.81;;;18.49;62.77
64362;BME280;50685;53.346;-6.296;2023-04-30T14:24:25;101475.38;;;18.25;62.75
64362;BME280;50685;53.346;-6.296;2023-04-30T14:27:01;101495.31;;;18.45;61.15
64362;BME280;50685;53.346;-6.296;2023-04-30T14:35:50;101456.06;;;18.91;60.63
64362;BME280;50685;53.346;-6.296;2023-04-30T14:38:17;101432.84;;;19.36;56.60
64362;BME280;50685;53.346;-6.296;2023-04-30T14:40:50;101453.56;;;19.79;51.51
64362;BME280;50685;53.346;-6.296;2023-04-30T14:43:27;101487.19;;;19.68;49.31
64362;BME280;50685;53.346;-6.296;2023-04-30T14:45:57;101428.19;;;19.18;49.56
64362;BME280;50685;53.346;-6.296;2023-04-30T14:48:49;101455.63;;;19.02;49.83
64362;BME280;50685;53.346;-6.296;2023-04-30T14:54:53;101479.56;;;18.85;50.16
64362;BME280;50685;53.346;-6.296;2023-04-30T14:57:43;101468.03;;;18.81;50.41
64362;BME280;50685;53.346;-6.296;2023-04-30T15:00:14;101417.56;;;18.66;50.13
64362;BME280;50685;53.346;-6.296;2023-04-30T15:02:45;101463.91;;;19.21;49.76
64362;BME280;50685;53.346;-6.296;2023-04-30T15:05:14;101432.75;;;19.38;49.75
64362;BME280;50685;53.346;-6.296;2023-04-30T15:07:48;101414.44;;;19.92;49.09
64362;BME280;50685;53.346;-6.296;2023-04-30T15:14:23;101437.63;;;20.99;47.36
64362;BME280;50685;53.346;-6.296;2023-04-30T15:17:10;101406.13;;;20.81;46.83
64362;BME280;50685;53.346;-6.296;2023-04-30T15:22:46;101368.16;;;20.25;48.73
64362;BME280;50685;53.346;-6.296;2023-04-30T15:25:15;101433.63;;;20.48;49.54
64362;BME280;50685;53.346;-6.296;2023-04-30T15:30:45;101395.00;;;19.85;49.74
64362;BME280;50685;53.346;-6.296;2023-04-30T15:33:28;101414.31;;;19.73;50.18
64362;BME280;50685;53.346;-6.296;2023-04-30T15:36:11;101376.78;;;19.25;51.04
64362;BME280;50685;53.346;-6.296;2023-04-30T15:38:38;101380.88;;;19.12;51.68
64362;BME280;50685;53.346;-6.296;2023-04-30T15:41:06;101380.66;;;18.94;52.27
64362;BME280;50685;53.346;-6.296;2023-04-30T15:43:32;101370.47;;;18.79;53.20
64362;BME280;50685;53.346;-6.296;2023-04-30T15:49:00;101455.81;;;18.47;59.39
64362;BME280;50685;53.346;-6.296;2023-04-30T16:01:22;101421.22;;;16.99;67.52
64362;BME280;50685;53.346;-6.296;2023-04-30T16:03:53;101407.88;;;16.97;68.18
64362;BME280;50685;53.346;-6.296;2023-04-30T16:06:29;101384.53;;;17.01;68.64
64362;BME280;50685;53.346;-6.296;2023-04-30T16:08:59;101394.69;;;17.20;68.63
64362;BME280;50685;53.346;-6.296;2023-04-30T16:11:31;101390.44;;;17.12;67.24
64362;BME280;50685;53.346;-6.296;2023-04-30T16:13:57;101422.97;;;17.30;67.07
64362;BME280;50685;53.346;-6.296;2023-04-30T16:16:25;101436.56;;;17.24;64.88
64362;BME280;50685;53.346;-6.296;2023-04-30T16:19:14;101418.16;;;17.11;63.22
64362;BME280;50685;53.346;-6.296;2023-04-30T16:21:42;101425.16;;;17.15;62.68
64362;BME280;50685;53.346;-6.296;2023-04-30T16:24:19;101437.47;;;17.23;63.73
64362;BME280;50685;53.346;-6.296;2023-04-30T16:26:51;101441.69;;;17.01;61.94
64362;BME280;50685;53.346;-6.296;2023-04-30T16:29:16;101423.47;;;16.81;60.96
64362;BME280;50685;53.346;-6.296;2023-04-30T16:31:42;101404.28;;;16.65;61.60
64362;BME280;50685;53.346;-6.296;2023-04-30T16:34:08;101434.16;;;16.50;61.71
64362;BME280;50685;53.346;-6.296;2023-04-30T16:36:38;101438.03;;;16.40;62.08
64362;BME280;50685;53.346;-6.296;2023-04-30T16:39:04;101425.56;;;16.38;63.17
64362;BME280;50685;53.346;-6.296;2023-04-30T16:41:29;101412.97;;;16.41;61.87
64362;BME280;50685;53.346;-6.296;2023-04-30T16:43:57;101434.53;;;16.36;59.57
64362;BME280;50685;53.346;-6.296;2023-04-30T16:46:23;101461.09;;;16.44;59.26
64362;BME280;50685;53.346;-6.296;2023-04-30T16:48:49;101423.84;;;16.01;60.50
64362;BME280;50685;53.346;-6.296;2023-04-30T16:51:17;101422.34;;;15.89;58.35
64362;BME280;50685;53.346;-6.296;2023-04-30T16:53:43;101448.03;;;15.95;59.33
64362;BME280;50685;53.346;-6.296;2023-04-30T16:56:08;101430.69;;;15.76;61.19
64362;BME280;50685;53.346;-6.296;2023-04-30T16:58:34;101476.41;;;16.04;61.39
64362;BME280;50685;53.346;-6.296;2023-04-30T17:01:00;101462.22;;;16.00;61.03
64362;BME280;50685;53.346;-6.296;2023-04-30T17:03:25;101465.41;;;16.15;61.96
64362;BME280;50685;53.346;-6.296;2023-04-30T17:05:56;101424.00;;;15.94;62.62
64362;BME280;50685;53.346;-6.296;2023-04-30T17:08:24;101444.56;;;16.28;62.55
64362;BME280;50685;53.346;-6.296;2023-04-30T17:10:56;101448.44;;;16.16;62.70
64362;BME280;50685;53.346;-6.296;2023-04-30T17:13:24;101396.94;;;16.06;63.71
64362;BME280;50685;53.346;-6.296;2023-04-30T17:15:50;101396.03;;;16.07;64.61
64362;BME280;50685;53.346;-6.296;2023-04-30T17:18:17;101412.13;;;16.05;64.88
64362;BME280;50685;53.346;-6.296;2023-04-30T17:20:49;101408.88;;;15.94;65.38
64362;BME280;50685;53.346;-6.296;2023-04-30T17:23:19;101413.22;;;15.98;65.55
64362;BME280;50685;53.346;-6.296;2023-04-30T17:28:53;101425.41;;;16.09;66.14
64362;BME280;50685;53.346;-6.296;2023-04-30T17:31:24;101443.94;;;16.18;66.11
64362;BME280;50685;53.346;-6.296;2023-04-30T17:33:50;101402.56;;;15.97;66.21
64362;BME280;50685;53.346;-6.296;2023-04-30T17:36:19;101471.97;;;16.37;65.13
64362;BME280;50685;53.346;-6.296;2023-04-30T17:38:48;101432.22;;;16.22;63.55
64362;BME280;50685;53.346;-6.296;2023-04-30T17:41:17;101404.78;;;16.14;64.65
64362;BME280;50685;53.346;-6.296;2023-04-30T17:43:48;101408.28;;;16.17;64.46
64362;BME280;50685;53.346;-6.296;2023-04-30T17:46:16;101432.84;;;16.33;63.76
64362;BME280;50685;53.346;-6.296;2023-04-30T17:48:42;101391.38;;;16.15;63.73
64362;BME280;50685;53.346;-6.296;2023-04-30T17:51:07;101392.00;;;16.25;63.10
64362;BME280;50685;53.346;-6.296;2023-04-30T17:53:45;101392.06;;;16.24;61.68